sensor_id;sensor_type;location;lat;lon;timestamp;pressure;altitude;pressure_sealevel;temperature;humidity
29433;BME280;16405;53.964;13.448;2023-03-25T00:01:18;99665.63;;;6.18;97.10
29433;BME280;16405;53.964;13.448;2023-03-25T00:03:44;99664.41;;;6.25;97.56
29433;BME280;16405;53.964;13.448;2023-03-25T00:06:18;99665.25;;;6.26;97.34
29433;BME280;16405;53.964;13.448;2023-03-25T00:08:44;99663.47;;;6.26;97.36
29433;BME280;16405;53.964;13.448;2023-03-25T00:11:10;99660.09;;;6.24;97.06
29433;BME280;16405;53.964;13.448;2023-03-25T00:13:36;99671.47;;;6.23;97.38
29433;BME280;16405;53.964;13.448;2023-03-25T00:16:06;99667.22;;;6.21;96.88
29433;BME280;16405;53.964;13.448;2023-03-25T00:18:32;99660.38;;;6.18;96.66
29433;BME280;16405;53.964;13.448;2023-03-25T00:21:00;99655.56;;;6.09;96.53
29433;BME280;16405;53.964;13.448;2023-03-25T00:23:28;99650.53;;;6.04;96.91
29433;BME280;16405;53.964;13.448;2023-03-25T00:25:58;99643.69;;;6.02;96.79
29433;BME280;16405;53.964;13.448;2023-03-25T00:28:33;99642.91;;;6.00;97.08
29433;BME280;16405;53.964;13.448;2023-03-25T00:31:11;99641.22;;;5.99;97.17
29433;BME280;16405;53.964;13.448;2023-03-25T00:33:37;99643.13;;;5.95;98.03
29433;BME280;16405;53.964;13.448;2023-03-25T00:36:10;99654.34;;;5.97;98.04
29433;BME280;16405;53.964;13.448;2023-03-25T00:38:37;99642.06;;;5.99;98.40
29433;BME280;16405;53.964;13.448;2023-03-25T00:43:38;99640.19;;;6.03;99.20
29433;BME280;16405;53.964;13.448;2023-03-25T00:46:04;99632.34;;;6.03;99.60
29433;BME280;16405;53.964;13.448;2023-03-25T00:48:30;99641.84;;;6.04;99.55
29433;BME280;16405;53.964;13.448;2023-03-25T00:50:56;99645.41;;;6.03;99.31
29433;BME280;16405;53.964;13.448;2023-03-25T00:53:21;99648.91;;;6.02;99.63
29433;BME280;16405;53.964;13.448;2023-03-25T00:55:57;99655.06;;;6.01;100.00
29433;BME280;16405;53.964;13.448;2023-03-25T00:58:23;99658.53;;;6.01;100.00
29433;BME280;16405;53.964;13.448;2023-03-25T01:00:49;99651.53;;;6.02;100.00
29433;BME280;16405;53.964;13.448;2023-03-25T01:03:25;99644.69;;;5.99;100.00
29433;BME280;16405;53.964;13.448;2023-03-25T01:05:53;99642.19;;;5.96;99.70
29433;BME280;16405;53.964;13.448;2023-03-25T01:08:21;99646.75;;;5.91;99.13
29433;BME280;16405;53.964;13.448;2023-03-25T01:10:54;99639.59;;;5.75;98.91
29433;BME280;16405;53.964;13.448;2023-03-25T01:13:24;99638.09;;;5.70;98.67
29433;BME280;16405;53.964;13.448;2023-03-25T01:15:57;99634.22;;;5.60;99.08
29433;BME280;16405;53.964;13.448;2023-03-25T01:18:23;99636.25;;;5.53;99.20
29433;BME280;16405;53.964;13.448;2023-03-25T01:20:49;99630.41;;;5.46;99.62
29433;BME280;16405;53.964;13.448;2023-03-25T01:23:19;99632.38;;;5.41;100.00
29433;BME280;16405;53.964;13.448;2023-03-25T01:25:45;99627.28;;;5.38;100.00
29433;BME280;16405;53.964;13.448;2023-03-25T01:28:10;99641.38;;;5.34;100.00
29433;BME280;16405;53.964;13.448;2023-03-25T01:30:36;99622.34;;;5.32;100.00
29433;BME280;16405;53.964;13.448;2023-03-25T01:33:02;99636.28;;;5.31;100.00
29433;BME280;16405;53.964;13.448;2023-03-25T01:35:28;99618.94;;;5.30;100.00
29433;BME280;16405;53.964;13.448;2023-03-25T01:37:56;99631.06;;;5.31;100.00
29433;BME280;16405;53.964;13.448;2023-03-25T01:40:24;99623.97;;;5.34;100.00
29433;BME280;16405;53.964;13.448;2023-03-25T01:42:50;99618.53;;;5.39;100.00
29433;BME280;16405;53.964;13.448;2023-03-25T01:45:27;99618.44;;;5.42;100.00
29433;BME280;16405;53.964;13.448;2023-03-25T01:48:19;99621.41;;;5.53;100.00
29433;BME280;16405;53.964;13.448;2023-03-25T01:51:13;99626.16;;;5.64;100.00
29433;BME280;16405;53.964;13.448;2023-03-25T01:53:43;99614.41;;;5.74;100.00
29433;BME280;16405;53.964;13.448;2023-03-25T01:56:12;99624.44;;;5.84;100.00
29433;BME280;16405;53.964;13.448;2023-03-25T01:58:40;99628.41;;;5.92;100.00
29433;BME280;16405;53.964;13.448;2023-03-25T02:01:17;99630.41;;;6.06;100.00
29433;BME280;16405;53.964;13.448;2023-03-25T02:03:49;99630.69;;;6.19;100.00
29433;BME280;16405;53.964;13.448;2023-03-25T02:06:26;99620.81;;;6.26;100.00
29433;BME280;16405;53.964;13.448;2023-03-25T02:09:02;99616.34;;;6.28;100.00
29433;BME280;16405;53.964;13.448;2023-03-25T02:11:29;99606.13;;;6.23;100.00
29433;BME280;16405;53.964;13.448;2023-03-25T02:14:07;99601.81;;;6.22;100.00
29433;BME280;16405;53.964;13.448;2023-03-25T02:28:57;99606.94;;;5.86;100.00
29433;BME280;16405;53.964;13.448;2023-03-25T02:40:24;99605.22;;;6.05;100.00
29433;BME280;16405;53.964;13.448;2023-03-25T02:43:04;99609.94;;;6.16;100.00
29433;BME280;16405;53.964;13.448;2023-03-25T02:45:43;99609.56;;;6.24;100.00
29433;BME280;16405;53.964;13.448;2023-03-25T02:49:22;99594.38;;;6.32;100.00
29433;BME280;16405;53.964;13.448;2023-03-25T02:51:48;99596.66;;;6.40;100.00
29433;BME280;16405;53.964;13.448;2023-03-25T02:54:18;99594.66;;;6.45;100.00
29433;BME280;16405;53.964;13.448;2023-03-25T02:56:47;99590.81;;;6.52;100.00
29433;BME280;16405;53.964;13.448;2023-03-25T02:59:20;99586.13;;;6.58;100.00
29433;BME280;16405;53.964;13.448;2023-03-25T03:01:46;99585.00;;;6.64;100.00
29433;BME280;16405;53.964;13.448;2023-03-25T03:04:15;99583.16;;;6.66;100.00
29433;BME280;16405;53.964;13.448;2023-03-25T03:06:42;99581.38;;;6.67;100.00
29433;BME280;16405;53.964;13.448;2023-03-25T03:09:35;99583.94;;;6.68;100.00
29433;BME280;16405;53.964;13.448;2023-03-25T03:12:27;99585.72;;;6.68;100.00
29433;BME280;16405;53.964;13.448;2023-03-25T03:15:26;99576.25;;;6.65;100.00
29433;BME280;16405;53.964;13.448;2023-03-25T03:20:56;99572.63;;;6.68;100.00
29433;BME280;16405;53.964;13.448;2023-03-25T03:23:52;99569.13;;;6.67;100.00
29433;BME280;16405;53.964;13.448;2023-03-25T03:26:37;99578.63;;;6.70;100.00
29433;BME280;16405;53.964;13.448;2023-03-25T03:29:36;99574.00;;;6.75;100.00
29433;BME280;16405;53.964;13.448;2023-03-25T03:32:16;99568.53;;;6.80;100.00
29433;BME280;16405;53.964;13.448;2023-03-25T03:35:08;99574.31;;;6.86;100.00
29433;BME280;16405;53.964;13.448;2023-03-25T03:37:49;99565.56;;;6.87;100.00
29433;BME280;16405;53.964;13.448;2023-03-25T03:40:19;99567.19;;;6.90;100.00
29433;BME280;16405;53.964;13.448;2023-03-25T03:43:14;99567.09;;;6.91;100.00
29433;BME280;16405;53.964;13.448;2023-03-25T03:45:53;99560.69;;;6.97;100.00
29433;BME280;16405;53.964;13.448;2023-03-25T03:48:40;99571.94;;;6.99;100.00
29433;BME280;16405;53.964;13.448;2023-03-25T03:51:22;99568.25;;;7.03;100.00
29433;BME280;16405;53.964;13.448;2023-03-25T03:54:10;99565.63;;;7.03;100.00
29433;BME280;16405;53.964;13.448;2023-03-25T03:56:49;99563.47;;;7.11;100.00
29433;BME280;16405;53.964;13.448;2023-03-25T04:02:51;99568.88;;;7.26;100.00
29433;BME280;16405;53.964;13.448;2023-03-25T04:05:29;99572.84;;;7.33;100.00
29433;BME280;16405;53.964;13.448;2023-03-25T04:08:30;99565.75;;;7.35;100.00
29433;BME280;16405;53.964;13.448;2023-03-25T04:11:15;99554.28;;;7.37;100.00
29433;BME280;16405;53.964;13.448;2023-03-25T04:13:46;99554.03;;;7.42;100.00
29433;BME280;16405;53.964;13.448;2023-03-25T04:16:14;99556.72;;;7.40;100.00
29433;BME280;16405;53.964;13.448;2023-03-25T04:18:40;99557.41;;;7.44;100.00
29433;BME280;16405;53.964;13.448;2023-03-25T04:21:08;99561.75;;;7.45;100.00
29433;BME280;16405;53.964;13.448;2023-03-25T04:23:42;99556.66;;;7.42;100.00
29433;BME280;16405;53.964;13.448;2023-03-25T04:26:08;99559.34;;;7.40;100.00
29433;BME280;16405;53.964;13.448;2023-03-25T04:28:33;99562.19;;;7.36;100.00
29433;BME280;16405;53.964;13.448;2023-03-25T04:31:35;99559.81;;;7.31;100.00
29433;BME280;16405;53.964;13.448;2023-03-25T04:34:34;99564.78;;;7.20;100.00
29433;BME280;16405;53.964;13.448;2023-03-25T04:37:00;99565.78;;;7.17;100.00
29433;BME280;16405;53.964;13.448;2023-03-25T04:39:28;99559.84;;;7.14;100.00
29433;BME280;16405;53.964;13.448;2023-03-25T04:42:05;99558.31;;;7.10;100.00
29433;BME280;16405;53.964;13.448;2023-03-25T04:44:46;99551.53;;;7.06;100.00
29433;BME280;16405;53.964;13.448;2023-03-25T04:47:37;99548.56;;;6.96;100.00
29433;BME280;16405;53.964;13.448;2023-03-25T04:50:34;99553.09;;;6.92;100.00
29433;BME280;16405;53.964;13.448;2023-03-25T04:53:00;99547.16;;;6.89;100.00
29433;BME280;16405;53.964;13.448;2023-03-25T04:55:26;99551.47;;;6.90;100.00
29433;BME280;16405;53.964;13.448;2023-03-25T04:58:17;99543.56;;;6.91;100.00
29433;BME280;16405;53.964;13.448;2023-03-25T05:01:28;99540.16;;;6.89;100.00
29433;BME280;16405;53.964;13.448;2023-03-25T05:04:17;99534.00;;;6.90;100.00
29433;BME280;16405;53.964;13.448;2023-03-25T05:07:07;99541.06;;;6.88;100.00
29433;BME280;16405;53.964;13.448;2023-03-25T05:09:46;99541.16;;;6.87;100.00
29433;BME280;16405;53.964;13.448;2023-03-25T05:12:15;99534.06;;;6.89;100.00
29433;BME280;16405;53.964;13.448;2023-03-25T05:15:05;99533.47;;;6.84;100.00
29433;BME280;16405;53.964;13.448;2023-03-25T05:17:37;99531.53;;;6.87;100.00
29433;BME280;16405;53.964;13.448;2023-03-25T05:20:16;99529.59;;;6.91;100.00
29433;BME280;16405;53.964;13.448;2023-03-25T05:22:48;99532.84;;;6.96;100.00
29433;BME280;16405;53.964;13.448;2023-03-25T05:26:07;99523.06;;;6.99;100.00
29433;BME280;16405;53.964;13.448;2023-03-25T05:29:21;99535.44;;;7.13;100.00
29433;BME280;16405;53.964;13.448;2023-03-25T05:32:16;99531.75;;;7.17;100.00
29433;BME280;16405;53.964;13.448;2023-03-25T05:35:05;99532.75;;;7.15;100.00
29433;BME280;16405;53.964;13.448;2023-03-25T05:37:34;99532.06;;;7.11;100.00
29433;BME280;16405;53.964;13.448;2023-03-25T05:40:27;99524.75;;;7.01;100.00
29433;BME280;16405;53.964;13.448;2023-03-25T05:43:09;99531.13;;;6.95;100.00
29433;BME280;16405;53.964;13.448;2023-03-25T05:45:35;99522.38;;;6.96;100.00
29433;BME280;16405;53.964;13.448;2023-03-25T05:54:18;99523.06;;;6.99;100.00
29433;BME280;16405;53.964;13.448;2023-03-25T05:56:45;99532.84;;;7.13;100.00
29433;BME280;16405;53.964;13.448;2023-03-25T06:05:47;99533.81;;;7.77;99.22
29433;BME280;16405;53.964;13.448;2023-03-25T06:08:17;99535.19;;;7.85;98.44
29433;BME280;16405;53.964;13.448;2023-03-25T06:11:09;99529.88;;;8.02;97.63
29433;BME280;16405;53.964;13.448;2023-03-25T06:13:47;99545.41;;;9.13;95.22
29433;BME280;16405;53.964;13.448;2023-03-25T06:16:28;99534.19;;;9.26;90.61
29433;BME280;16405;53.964;13.448;2023-03-25T06:23:39;99540.84;;;8.56;91.84
29433;BME280;16405;53.964;13.448;2023-03-25T06:26:05;99547.19;;;8.52;92.25
29433;BME280;16405;53.964;13.448;2023-03-25T06:28:32;99536.13;;;8.47;92.32
29433;BME280;16405;53.964;13.448;2023-03-25T06:31:28;99545.00;;;8.60;92.21
29433;BME280;16405;53.964;13.448;2023-03-25T06:34:37;99545.47;;;8.67;91.95
29433;BME280;16405;53.964;13.448;2023-03-25T06:37:19;99545.84;;;8.91;91.74
29433;BME280;16405;53.964;13.448;2023-03-25T06:42:57;99556.81;;;9.85;88.82
29433;BME280;16405;53.964;13.448;2023-03-25T06:45:35;99561.84;;;10.03;86.51
29433;BME280;16405;53.964;13.448;2023-03-25T06:51:13;99565.09;;;10.62;84.78
29433;BME280;16405;53.964;13.448;2023-03-25T06:53:48;99567.16;;;10.72;82.95
29433;BME280;16405;53.964;13.448;2023-03-25T06:56:24;99567.22;;;11.23;78.74
29433;BME280;16405;53.964;13.448;2023-03-25T06:59:08;99584.44;;;15.77;70.12
29433;BME280;16405;53.964;13.448;2023-03-25T07:01:37;99565.13;;;13.93;69.05
29433;BME280;16405;53.964;13.448;2023-03-25T07:04:27;99559.69;;;12.91;71.43
29433;BME280;16405;53.964;13.448;2023-03-25T07:07:08;99564.19;;;12.30;73.43
29433;BME280;16405;53.964;13.448;2023-03-25T07:09:37;99559.53;;;11.71;74.72
29433;BME280;16405;53.964;13.448;2023-03-25T07:15:27;99563.44;;;12.28;73.87
29433;BME280;16405;53.964;13.448;2023-03-25T07:18:08;99585.00;;;14.53;70.97
29433;BME280;16405;53.964;13.448;2023-03-25T07:20:49;99598.34;;;17.68;61.86
29433;BME280;16405;53.964;13.448;2023-03-25T07:23:25;99611.50;;;20.38;55.53
29433;BME280;16405;53.964;13.448;2023-03-25T07:26:09;99593.69;;;19.78;53.09
29433;BME280;16405;53.964;13.448;2023-03-25T07:28:47;99575.28;;;17.49;57.14
29433;BME280;16405;53.964;13.448;2023-03-25T07:31:39;99563.91;;;15.58;60.69
29433;BME280;16405;53.964;13.448;2023-03-25T07:34:09;99571.31;;;14.48;64.23
29433;BME280;16405;53.964;13.448;2023-03-25T07:36:58;99561.03;;;13.78;66.19
29433;BME280;16405;53.964;13.448;2023-03-25T07:40:01;99564.25;;;12.89;68.74
29433;BME280;16405;53.964;13.448;2023-03-25T07:42:35;99564.84;;;12.21;70.75
29433;BME280;16405;53.964;13.448;2023-03-25T07:45:15;99561.22;;;11.72;73.04
29433;BME280;16405;53.964;13.448;2023-03-25T07:47:41;99569.69;;;11.39;74.71
29433;BME280;16405;53.964;13.448;2023-03-25T07:50:23;99562.25;;;11.05;75.27
29433;BME280;16405;53.964;13.448;2023-03-25T07:53:48;99565.28;;;10.86;76.89
29433;BME280;16405;53.964;13.448;2023-03-25T07:56:16;99577.47;;;10.75;77.78
29433;BME280;16405;53.964;13.448;2023-03-25T07:59:07;99567.03;;;10.73;78.62
29433;BME280;16405;53.964;13.448;2023-03-25T08:01:37;99575.56;;;10.77;78.94
29433;BME280;16405;53.964;13.448;2023-03-25T08:04:16;99569.38;;;10.78;79.36
29433;BME280;16405;53.964;13.448;2023-03-25T08:07:06;99572.72;;;10.67;78.52
29433;BME280;16405;53.964;13.448;2023-03-25T08:12:28;99579.94;;;10.36;79.89
29433;BME280;16405;53.964;13.448;2023-03-25T08:14:57;99569.44;;;10.22;81.22
29433;BME280;16405;53.964;13.448;2023-03-25T08:17:47;99567.72;;;10.21;81.10
29433;BME280;16405;53.964;13.448;2023-03-25T08:20:44;99573.28;;;10.16;82.10
29433;BME280;16405;53.964;13.448;2023-03-25T08:23:10;99569.22;;;10.25;81.41
29433;BME280;16405;53.964;13.448;2023-03-25T08:25:49;99577.13;;;10.25;81.36
29433;BME280;16405;53.964;13.448;2023-03-25T08:28:17;99577.41;;;10.62;80.42
29433;BME280;16405;53.964;13.448;2023-03-25T08:30:52;99578.47;;;10.86;78.96
29433;BME280;16405;53.964;13.448;2023-03-25T08:33:21;99573.50;;;10.95;78.38
29433;BME280;16405;53.964;13.448;2023-03-25T08:36:25;99568.06;;;10.98;78.01
29433;BME280;16405;53.964;13.448;2023-03-25T08:38:57;99578.59;;;10.98;77.87
29433;BME280;16405;53.964;13.448;2023-03-25T08:41:48;99583.63;;;11.01;78.13
29433;BME280;16405;53.964;13.448;2023-03-25T08:44:59;99574.66;;;10.91;77.58
29433;BME280;16405;53.964;13.448;2023-03-25T08:47:25;99567.50;;;10.93;77.86
29433;BME280;16405;53.964;13.448;2023-03-25T08:54:55;99572.66;;;10.94;77.41
29433;BME280;16405;53.964;13.448;2023-03-25T08:57:34;99577.22;;;11.05;76.67
29433;BME280;16405;53.964;13.448;2023-03-25T09:00:01;99580.41;;;11.10;77.11
29433;BME280;16405;53.964;13.448;2023-03-25T09:03:07;99574.28;;;11.09;76.51
29433;BME280;16405;53.964;13.448;2023-03-25T09:06:08;99576.44;;;11.43;75.07
29433;BME280;16405;53.964;13.448;2023-03-25T09:08:57;99588.66;;;11.95;73.90
29433;BME280;16405;53.964;13.448;2023-03-25T09:11:28;99582.66;;;12.30;72.32
29433;BME280;16405;53.964;13.448;2023-03-25T09:14:09;99579.00;;;12.44;71.65
29433;BME280;16405;53.964;13.448;2023-03-25T09:20:28;99576.63;;;11.78;72.17
29433;BME280;16405;53.964;13.448;2023-03-25T09:22:55;99580.31;;;11.50;72.93
29433;BME280;16405;53.964;13.448;2023-03-25T09:28:48;99574.94;;;11.26;72.93
29433;BME280;16405;53.964;13.448;2023-03-25T09:31:58;99573.72;;;10.92;73.92
29433;BME280;16405;53.964;13.448;2023-03-25T09:55:39;99589.34;;;11.20;74.26
29433;BME280;16405;53.964;13.448;2023-03-25T10:25:38;99597.72;;;12.04;71.09
29433;BME280;16405;53.964;13.448;2023-03-25T10:31:58;99587.81;;;11.82;71.21
29433;BME280;16405;53.964;13.448;2023-03-25T10:34:44;99579.47;;;11.75;70.54
29433;BME280;16405;53.964;13.448;2023-03-25T10:44:29;99585.91;;;11.45;71.41
29433;BME280;16405;53.964;13.448;2023-03-25T10:47:26;99578.94;;;11.32;71.40
29433;BME280;16405;53.964;13.448;2023-03-25T10:50:41;99579.34;;;11.13;71.54
29433;BME280;16405;53.964;13.448;2023-03-25T10:53:30;99581.44;;;11.07;72.14
29433;BME280;16405;53.964;13.448;2023-03-25T11:00:08;99571.56;;;11.37;72.64
29433;BME280;16405;53.964;13.448;2023-03-25T11:02:49;99570.50;;;11.78;71.90
29433;BME280;16405;53.964;13.448;2023-03-25T11:05:53;99580.41;;;12.00;70.79
29433;BME280;16405;53.964;13.448;2023-03-25T11:08:30;99579.72;;;12.22;70.10
29433;BME280;16405;53.964;13.448;2023-03-25T11:11:35;99577.28;;;12.56;68.92
29433;BME280;16405;53.964;13.448;2023-03-25T11:14:57;99575.78;;;13.00;67.15
29433;BME280;16405;53.964;13.448;2023-03-25T11:22:01;99580.69;;;12.93;66.78
29433;BME280;16405;53.964;13.448;2023-03-25T11:24:49;99566.06;;;12.65;65.57
29433;BME280;16405;53.964;13.448;2023-03-25T11:27:28;99568.59;;;12.42;66.77
29433;BME280;16405;53.964;13.448;2023-03-25T11:30:18;99572.81;;;12.08;67.50
29433;BME280;16405;53.964;13.448;2023-03-25T11:33:29;99583.38;;;11.57;71.69
29433;BME280;16405;53.964;13.448;2023-03-25T11:39:40;99596.09;;;10.72;77.86
29433;BME280;16405;53.964;13.448;2023-03-25T11:45:36;99569.88;;;9.87;80.45
29433;BME280;16405;53.964;13.448;2023-03-25T11:48:29;99576.44;;;9.51;80.31
29433;BME280;16405;53.964;13.448;2023-03-25T11:54:39;99551.47;;;9.44;81.58
29433;BME280;16405;53.964;13.448;2023-03-25T11:57:20;99561.22;;;9.71;82.03
29433;BME280;16405;53.964;13.448;2023-03-25T12:03:29;99553.81;;;9.92;80.46
29433;BME280;16405;53.964;13.448;2023-03-25T12:09:17;99557.44;;;10.03;80.05
29433;BME280;16405;53.964;13.448;2023-03-25T13:13:22;99584.81;;;10.42;73.83
29433;BME280;16405;53.964;13.448;2023-03-25T13:17:05;99586.00;;;9.95;75.66
29433;BME280;16405;53.964;13.448;2023-03-25T13:23:07;99597.25;;;9.54;78.66
29433;BME280;16405;53.964;13.448;2023-03-25T13:32:45;99566.28;;;9.45;83.73
29433;BME280;16405;53.964;13.448;2023-03-25T13:35:41;99580.38;;;9.58;82.56
29433;BME280;16405;53.964;13.448;2023-03-25T13:39:28;99591.28;;;9.81;81.89
29433;BME280;16405;53.964;13.448;2023-03-25T13:50:39;99581.38;;;10.13;80.76
29433;BME280;16405;53.964;13.448;2023-03-25T14:17:48;99545.72;;;10.63;74.45
29433;BME280;16405;53.964;13.448;2023-03-25T14:24:30;99551.03;;;10.76;74.69
29433;BME280;16405;53.964;13.448;2023-03-25T14:31:29;99548.53;;;10.87;74.50
29433;BME280;16405;53.964;13.448;2023-03-25T14:49:18;99549.06;;;10.53;76.04
29433;BME280;16405;53.964;13.448;2023-03-25T14:51:58;99541.56;;;10.74;75.17
29433;BME280;16405;53.964;13.448;2023-03-25T14:54:37;99546.00;;;10.99;76.47
29433;BME280;16405;53.964;13.448;2023-03-25T15:04:32;99553.44;;;11.19;73.90
29433;BME280;16405;53.964;13.448;2023-03-25T15:08:09;99553.44;;;11.32;73.84
29433;BME280;16405;53.964;13.448;2023-03-25T15:14:40;99556.16;;;11.18;73.01
29433;BME280;16405;53.964;13.448;2023-03-25T15:20:48;99544.16;;;11.14;75.10
29433;BME280;16405;53.964;13.448;2023-03-25T15:34:18;99534.97;;;10.94;74.43
29433;BME280;16405;53.964;13.448;2023-03-25T15:57:48;99535.31;;;9.36;83.42
29433;BME280;16405;53.964;13.448;2023-03-25T16:03:29;99534.75;;;8.56;86.05
29433;BME280;16405;53.964;13.448;2023-03-25T16:06:18;99541.19;;;8.66;85.75
29433;BME280;16405;53.964;13.448;2023-03-25T16:08:49;99546.94;;;8.87;86.41
29433;BME280;16405;53.964;13.448;2023-03-25T16:11:40;99545.28;;;9.00;86.14
29433;BME280;16405;53.964;13.448;2023-03-25T16:21:18;99546.63;;;9.08;87.32
29433;BME280;16405;53.964;13.448;2023-03-25T16:24:02;99544.66;;;9.11;87.87
29433;BME280;16405;53.964;13.448;2023-03-25T16:27:17;99542.41;;;9.05;87.98
29433;BME280;16405;53.964;13.448;2023-03-25T16:33:49;99548.53;;;8.90;87.68
29433;BME280;16405;53.964;13.448;2023-03-25T16:36:28;99538.72;;;8.93;87.66
29433;BME280;16405;53.964;13.448;2023-03-25T16:42:40;99540.50;;;8.93;88.12
29433;BME280;16405;53.964;13.448;2023-03-25T16:45:16;99531.41;;;8.98;88.06
29433;BME280;16405;53.964;13.448;2023-03-25T16:47:42;99527.84;;;8.99;88.10
29433;BME280;16405;53.964;13.448;2023-03-25T16:53:48;99534.31;;;8.94;87.92
29433;BME280;16405;53.964;13.448;2023-03-25T16:56:31;99531.13;;;8.89;88.00
29433;BME280;16405;53.964;13.448;2023-03-25T16:59:39;99527.88;;;8.69;88.91
29433;BME280;16405;53.964;13.448;2023-03-25T17:08:49;99525.06;;;8.72;90.59
29433;BME280;16405;53.964;13.448;2023-03-25T17:12:02;99514.94;;;8.66;90.29
29433;BME280;16405;53.964;13.448;2023-03-25T17:18:25;99512.06;;;8.55;90.49
29433;BME280;16405;53.964;13.448;2023-03-25T17:29:19;99502.13;;;7.98;91.22
29433;BME280;16405;53.964;13.448;2023-03-25T17:31:59;99508.47;;;7.94;91.60
29433;BME280;16405;53.964;13.448;2023-03-25T17:34:25;99504.50;;;7.87;92.00
29433;BME280;16405;53.964;13.448;2023-03-25T17:37:00;99506.69;;;7.78;92.03
29433;BME280;16405;53.964;13.448;2023-03-25T17:42:37;99502.38;;;7.62;92.62
29433;BME280;16405;53.964;13.448;2023-03-25T17:48:28;99512.56;;;7.50;94.46
29433;BME280;16405;53.964;13.448;2023-03-25T17:51:06;99514.25;;;7.51;94.80
29433;BME280;16405;53.964;13.448;2023-03-25T17:53:50;99516.81;;;7.53;94.75
29433;BME280;16405;53.964;13.448;2023-03-25T17:56:26;99518.34;;;7.57;95.48
29433;BME280;16405;53.964;13.448;2023-03-25T17:59:06;99519.75;;;7.47;95.98
29433;BME280;16405;53.964;13.448;2023-03-25T18:01:32;99521.28;;;7.51;95.68
29433;BME280;16405;53.964;13.448;2023-03-25T18:04:00;99516.66;;;7.56;95.70
29433;BME280;16405;53.964;13.448;2023-03-25T18:06:28;99527.66;;;7.63;96.25
29433;BME280;16405;53.964;13.448;2023-03-25T18:08:57;99523.75;;;7.70;96.03
29433;BME280;16405;53.964;13.448;2023-03-25T18:11:23;99520.97;;;7.73;95.95
29433;BME280;16405;53.964;13.448;2023-03-25T18:13:48;99526.13;;;7.74;96.04
29433;BME280;16405;53.964;13.448;2023-03-25T18:19:24;99517.25;;;7.77;96.35
29433;BME280;16405;53.964;13.448;2023-03-25T18:21:52;99522.34;;;7.80;96.47
29433;BME280;16405;53.964;13.448;2023-03-25T18:24:28;99521.25;;;7.84;96.10
29433;BME280;16405;53.964;13.448;2023-03-25T18:26:56;99527.16;;;7.88;96.55
29433;BME280;16405;53.964;13.448;2023-03-25T18:29:28;99521.84;;;7.89;96.82
29433;BME280;16405;53.964;13.448;2023-03-25T18:31:54;99511.34;;;7.89;97.30
29433;BME280;16405;53.964;13.448;2023-03-25T18:34:20;99518.38;;;7.89;97.66
29433;BME280;16405;53.964;13.448;2023-03-25T18:36:48;99511.59;;;7.85;97.53
29433;BME280;16405;53.964;13.448;2023-03-25T18:39:26;99512.44;;;7.85;97.51
29433;BME280;16405;53.964;13.448;2023-03-25T18:42:01;99498.44;;;7.86;97.58
29433;BME280;16405;53.964;13.448;2023-03-25T18:44:27;99501.78;;;7.88;98.28
29433;BME280;16405;53.964;13.448;2023-03-25T18:46:55;99512.25;;;7.88;98.22
29433;BME280;16405;53.964;13.448;2023-03-25T18:49:21;99511.59;;;7.85;98.60
29433;BME280;16405;53.964;13.448;2023-03-25T18:51:47;99514.31;;;7.83;98.55
29433;BME280;16405;53.964;13.448;2023-03-25T18:54:18;99513.97;;;7.73;98.93
29433;BME280;16405;53.964;13.448;2023-03-25T18:56:47;99521.06;;;7.71;99.54
29433;BME280;16405;53.964;13.448;2023-03-25T18:59:24;99527.28;;;7.69;99.97
29433;BME280;16405;53.964;13.448;2023-03-25T19:02:20;99528.50;;;7.63;99.88
29433;BME280;16405;53.964;13.448;2023-03-25T19:04:46;99519.16;;;7.57;99.66
29433;BME280;16405;53.964;13.448;2023-03-25T19:07:26;99522.22;;;7.50;99.86
29433;BME280;16405;53.964;13.448;2023-03-25T19:10:05;99516.47;;;7.43;99.85
29433;BME280;16405;53.964;13.448;2023-03-25T19:12:42;99516.00;;;7.35;100.00
29433;BME280;16405;53.964;13.448;2023-03-25T19:15:38;99513.94;;;7.24;100.00
29433;BME280;16405;53.964;13.448;2023-03-25T19:18:05;99507.56;;;7.12;100.00
29433;BME280;16405;53.964;13.448;2023-03-25T19:20:37;99515.00;;;7.04;100.00
29433;BME280;16405;53.964;13.448;2023-03-25T19:23:05;99504.66;;;7.01;100.00
29433;BME280;16405;53.964;13.448;2023-03-25T19:25:37;99507.75;;;6.92;100.00
29433;BME280;16405;53.964;13.448;2023-03-25T19:28:10;99500.28;;;6.84;100.00
29433;BME280;16405;53.964;13.448;2023-03-25T19:30:39;99499.16;;;6.72;100.00
29433;BME280;16405;53.964;13.448;2023-03-25T19:33:16;99496.84;;;6.66;100.00
29433;BME280;16405;53.964;13.448;2023-03-25T19:35:53;99496.28;;;6.60;100.00
29433;BME280;16405;53.964;13.448;2023-03-25T19:38:25;99500.06;;;6.54;100.00
29433;BME280;16405;53.964;13.448;2023-03-25T19:41:10;99501.13;;;6.50;100.00
29433;BME280;16405;53.964;13.448;2023-03-25T19:43:40;99503.91;;;6.47;100.00
29433;BME280;16405;53.964;13.448;2023-03-25T19:46:07;99499.69;;;6.44;100.00
29433;BME280;16405;53.964;13.448;2023-03-25T19:48:42;99489.03;;;6.47;100.00
29433;BME280;16405;53.964;13.448;2023-03-25T19:51:10;99492.44;;;6.49;100.00
29433;BME280;16405;53.964;13.448;2023-03-25T19:53:45;99482.91;;;6.48;100.00
29433;BME280;16405;53.964;13.448;2023-03-25T19:56:14;99477.44;;;6.53;100.00
29433;BME280;16405;53.964;13.448;2023-03-25T19:58:40;99477.28;;;6.56;100.00
29433;BME280;16405;53.964;13.448;2023-03-25T20:01:10;99471.75;;;6.62;100.00
29433;BME280;16405;53.964;13.448;2023-03-25T20:03:39;99469.72;;;6.67;100.00
29433;BME280;16405;53.964;13.448;2023-03-25T20:06:16;99473.81;;;6.73;100.00
29433;BME280;16405;53.964;13.448;2023-03-25T20:08:48;99472.75;;;6.77;100.00
29433;BME280;16405;53.964;13.448;2023-03-25T20:11:37;99468.22;;;6.81;100.00
29433;BME280;16405;53.964;13.448;2023-03-25T20:14:07;99468.03;;;6.84;100.00